sensor_id;sensor_type;location;lat;lon;timestamp;P1;durP1;ratioP1;P2;durP2;ratioP2
32038;SDS011;18549;42.286;22.688;2022-12-24T00:02:23;219.20;;;122.43;;
32038;SDS011;18549;42.286;22.688;2022-12-24T00:04:50;206.73;;;118.57;;
32038;SDS011;18549;42.286;22.688;2022-12-24T00:07:18;204.63;;;116.63;;
32038;SDS011;18549;42.286;22.688;2022-12-24T00:09:45;198.73;;;113.67;;
32038;SDS011;18549;42.286;22.688;2022-12-24T00:12:12;204.00;;;114.33;;
32038;SDS011;18549;42.286;22.688;2022-12-24T00:14:39;212.30;;;120.53;;
32038;SDS011;18549;42.286;22.688;2022-12-24T00:17:06;189.60;;;114.97;;
32038;SDS011;18549;42.286;22.688;2022-12-24T00:19:33;192.87;;;111.27;;
32038;SDS011;18549;42.286;22.688;2022-12-24T00:22:00;238.10;;;139.30;;
32038;SDS011;18549;42.286;22.688;2022-12-24T00:24:28;217.03;;;126.07;;
32038;SDS011;18549;42.286;22.688;2022-12-24T00:26:55;214.87;;;121.47;;
32038;SDS011;18549;42.286;22.688;2022-12-24T00:29:22;190.73;;;106.07;;
32038;SDS011;18549;42.286;22.688;2022-12-24T00:31:49;131.97;;;74.37;;
32038;SDS011;18549;42.286;22.688;2022-12-24T00:34:16;168.90;;;102.83;;
32038;SDS011;18549;42.286;22.688;2022-12-24T00:36:43;210.90;;;126.17;;
32038;SDS011;18549;42.286;22.688;2022-12-24T00:39:10;258.37;;;145.77;;
32038;SDS011;18549;42.286;22.688;2022-12-24T00:41:39;248.60;;;148.67;;
32038;SDS011;18549;42.286;22.688;2022-12-24T00:44:06;236.03;;;139.47;;
32038;SDS011;18549;42.286;22.688;2022-12-24T00:46:34;210.73;;;121.47;;
32038;SDS011;18549;42.286;22.688;2022-12-24T00:49:03;247.77;;;144.33;;
32038;SDS011;18549;42.286;22.688;2022-12-24T00:51:31;267.83;;;153.77;;
32038;SDS011;18549;42.286;22.688;2022-12-24T00:54:01;230.97;;;137.60;;
32038;SDS011;18549;42.286;22.688;2022-12-24T00:56:27;231.47;;;134.60;;
32038;SDS011;18549;42.286;22.688;2022-12-24T00:58:56;195.23;;;110.07;;
32038;SDS011;18549;42.286;22.688;2022-12-24T01:01:24;195.97;;;110.87;;
32038;SDS011;18549;42.286;22.688;2022-12-24T01:03:51;184.60;;;106.70;;
32038;SDS011;18549;42.286;22.688;2022-12-24T01:06:40;171.60;;;94.07;;
32038;SDS011;18549;42.286;22.688;2022-12-24T01:09:06;150.17;;;79.67;;
32038;SDS011;18549;42.286;22.688;2022-12-24T01:11:32;115.03;;;67.20;;
32038;SDS011;18549;42.286;22.688;2022-12-24T01:14:01;120.63;;;66.50;;
32038;SDS011;18549;42.286;22.688;2022-12-24T01:16:28;104.93;;;63.43;;
32038;SDS011;18549;42.286;22.688;2022-12-24T01:18:55;110.63;;;62.87;;
32038;SDS011;18549;42.286;22.688;2022-12-24T01:21:22;103.57;;;59.00;;
32038;SDS011;18549;42.286;22.688;2022-12-24T01:23:50;112.13;;;66.83;;
32038;SDS011;18549;42.286;22.688;2022-12-24T01:26:19;112.05;;;63.25;;
32038;SDS011;18549;42.286;22.688;2022-12-24T01:28:47;107.80;;;61.13;;
32038;SDS011;18549;42.286;22.688;2022-12-24T01:31:18;84.67;;;51.60;;
32038;SDS011;18549;42.286;22.688;2022-12-24T01:33:45;86.30;;;50.10;;
32038;SDS011;18549;42.286;22.688;2022-12-24T01:36:16;86.57;;;52.07;;
32038;SDS011;18549;42.286;22.688;2022-12-24T01:39:03;80.23;;;50.47;;
32038;SDS011;18549;42.286;22.688;2022-12-24T01:41:41;77.00;;;45.97;;
32038;SDS011;18549;42.286;22.688;2022-12-24T01:44:27;73.80;;;43.23;;
32038;SDS011;18549;42.286;22.688;2022-12-24T01:46:58;78.97;;;43.83;;
32038;SDS011;18549;42.286;22.688;2022-12-24T01:49:32;69.17;;;45.37;;
32038;SDS011;18549;42.286;22.688;2022-12-24T01:52:00;74.97;;;47.40;;
32038;SDS011;18549;42.286;22.688;2022-12-24T01:54:32;72.20;;;44.30;;
32038;SDS011;18549;42.286;22.688;2022-12-24T01:57:03;78.17;;;47.43;;
32038;SDS011;18549;42.286;22.688;2022-12-24T01:59:37;76.17;;;45.83;;
32038;SDS011;18549;42.286;22.688;2022-12-24T02:02:10;75.83;;;42.83;;
32038;SDS011;18549;42.286;22.688;2022-12-24T02:04:39;67.30;;;39.13;;
32038;SDS011;18549;42.286;22.688;2022-12-24T02:07:09;72.23;;;41.90;;
32038;SDS011;18549;42.286;22.688;2022-12-24T02:09:37;65.63;;;42.83;;
32038;SDS011;18549;42.286;22.688;2022-12-24T02:12:06;66.73;;;41.83;;
32038;SDS011;18549;42.286;22.688;2022-12-24T02:14:38;73.33;;;41.37;;
32038;SDS011;18549;42.286;22.688;2022-12-24T02:17:07;58.33;;;35.17;;
32038;SDS011;18549;42.286;22.688;2022-12-24T02:19:59;65.60;;;39.20;;
32038;SDS011;18549;42.286;22.688;2022-12-24T02:22:46;79.90;;;43.30;;
32038;SDS011;18549;42.286;22.688;2022-12-24T02:25:32;62.73;;;39.90;;
32038;SDS011;18549;42.286;22.688;2022-12-24T02:28:09;80.10;;;43.87;;
32038;SDS011;18549;42.286;22.688;2022-12-24T02:30:44;83.20;;;47.03;;
32038;SDS011;18549;42.286;22.688;2022-12-24T02:33:17;75.80;;;43.67;;
32038;SDS011;18549;42.286;22.688;2022-12-24T02:35:53;70.90;;;45.37;;
32038;SDS011;18549;42.286;22.688;2022-12-24T02:38:25;107.27;;;66.93;;
32038;SDS011;18549;42.286;22.688;2022-12-24T02:40:55;126.60;;;75.30;;
32038;SDS011;18549;42.286;22.688;2022-12-24T02:43:28;175.07;;;97.20;;
32038;SDS011;18549;42.286;22.688;2022-12-24T02:46:05;193.67;;;110.00;;
32038;SDS011;18549;42.286;22.688;2022-12-24T02:48:38;213.83;;;118.50;;
32038;SDS011;18549;42.286;22.688;2022-12-24T02:51:08;217.93;;;122.57;;
32038;SDS011;18549;42.286;22.688;2022-12-24T02:53:36;222.07;;;125.43;;
32038;SDS011;18549;42.286;22.688;2022-12-24T02:59:08;212.33;;;121.43;;
32038;SDS011;18549;42.286;22.688;2022-12-24T03:01:56;235.63;;;132.70;;
32038;SDS011;18549;42.286;22.688;2022-12-24T03:04:34;244.00;;;140.33;;
32038;SDS011;18549;42.286;22.688;2022-12-24T03:07:14;245.37;;;140.23;;
32038;SDS011;18549;42.286;22.688;2022-12-24T03:09:53;256.40;;;145.07;;
32038;SDS011;18549;42.286;22.688;2022-12-24T03:12:28;259.13;;;144.90;;
32038;SDS011;18549;42.286;22.688;2022-12-24T03:15:00;273.37;;;147.97;;
32038;SDS011;18549;42.286;22.688;2022-12-24T03:17:31;295.00;;;150.23;;
32038;SDS011;18549;42.286;22.688;2022-12-24T03:20:08;278.27;;;137.10;;
32038;SDS011;18549;42.286;22.688;2022-12-24T03:22:36;306.17;;;138.90;;
32038;SDS011;18549;42.286;22.688;2022-12-24T03:25:04;281.97;;;136.13;;
32038;SDS011;18549;42.286;22.688;2022-12-24T03:27:31;329.33;;;145.90;;
32038;SDS011;18549;42.286;22.688;2022-12-24T03:30:00;313.07;;;147.60;;
32038;SDS011;18549;42.286;22.688;2022-12-24T03:32:30;302.03;;;137.77;;
32038;SDS011;18549;42.286;22.688;2022-12-24T03:35:01;272.43;;;130.30;;
32038;SDS011;18549;42.286;22.688;2022-12-24T03:37:28;317.57;;;133.97;;
32038;SDS011;18549;42.286;22.688;2022-12-24T03:39:54;258.53;;;119.80;;
32038;SDS011;18549;42.286;22.688;2022-12-24T03:42:21;241.63;;;111.27;;
32038;SDS011;18549;42.286;22.688;2022-12-24T03:44:48;217.87;;;99.33;;
32038;SDS011;18549;42.286;22.688;2022-12-24T03:47:15;219.63;;;98.93;;
32038;SDS011;18549;42.286;22.688;2022-12-24T03:49:44;310.17;;;117.77;;
32038;SDS011;18549;42.286;22.688;2022-12-24T03:52:11;248.33;;;114.63;;
32038;SDS011;18549;42.286;22.688;2022-12-24T03:54:38;290.33;;;136.43;;
32038;SDS011;18549;42.286;22.688;2022-12-24T03:57:07;260.10;;;118.50;;
32038;SDS011;18549;42.286;22.688;2022-12-24T03:59:34;248.50;;;119.40;;
32038;SDS011;18549;42.286;22.688;2022-12-24T04:02:02;237.07;;;113.13;;
32038;SDS011;18549;42.286;22.688;2022-12-24T04:04:29;241.47;;;114.23;;
32038;SDS011;18549;42.286;22.688;2022-12-24T04:06:59;214.17;;;109.13;;
32038;SDS011;18549;42.286;22.688;2022-12-24T04:09:26;207.60;;;109.27;;
32038;SDS011;18549;42.286;22.688;2022-12-24T04:11:53;189.40;;;106.37;;
32038;SDS011;18549;42.286;22.688;2022-12-24T04:14:21;189.27;;;105.33;;
32038;SDS011;18549;42.286;22.688;2022-12-24T04:16:49;197.70;;;110.83;;
32038;SDS011;18549;42.286;22.688;2022-12-24T04:19:16;217.43;;;110.73;;
32038;SDS011;18549;42.286;22.688;2022-12-24T04:21:42;208.13;;;109.47;;
32038;SDS011;18549;42.286;22.688;2022-12-24T04:24:12;209.57;;;115.30;;
32038;SDS011;18549;42.286;22.688;2022-12-24T04:26:38;232.87;;;127.97;;
32038;SDS011;18549;42.286;22.688;2022-12-24T04:29:05;279.83;;;136.77;;
32038;SDS011;18549;42.286;22.688;2022-12-24T04:31:33;276.50;;;138.47;;
32038;SDS011;18549;42.286;22.688;2022-12-24T04:34:00;265.10;;;139.27;;
32038;SDS011;18549;42.286;22.688;2022-12-24T04:36:35;249.37;;;130.60;;
32038;SDS011;18549;42.286;22.688;2022-12-24T04:39:10;237.27;;;130.00;;
32038;SDS011;18549;42.286;22.688;2022-12-24T04:41:49;253.00;;;138.60;;
32038;SDS011;18549;42.286;22.688;2022-12-24T04:44:22;247.50;;;139.00;;
32038;SDS011;18549;42.286;22.688;2022-12-24T04:46:50;247.47;;;133.37;;
32038;SDS011;18549;42.286;22.688;2022-12-24T04:49:17;224.93;;;122.07;;
32038;SDS011;18549;42.286;22.688;2022-12-24T04:51:45;234.50;;;121.70;;
32038;SDS011;18549;42.286;22.688;2022-12-24T04:54:14;221.27;;;123.97;;
32038;SDS011;18549;42.286;22.688;2022-12-24T04:56:41;244.13;;;128.83;;
32038;SDS011;18549;42.286;22.688;2022-12-24T04:59:08;232.57;;;125.97;;
32038;SDS011;18549;42.286;22.688;2022-12-24T05:01:35;230.67;;;125.17;;
32038;SDS011;18549;42.286;22.688;2022-12-24T05:04:02;219.03;;;121.30;;
32038;SDS011;18549;42.286;22.688;2022-12-24T05:06:31;235.67;;;124.83;;
32038;SDS011;18549;42.286;22.688;2022-12-24T05:08:58;220.53;;;124.13;;
32038;SDS011;18549;42.286;22.688;2022-12-24T05:11:29;197.70;;;115.57;;
32038;SDS011;18549;42.286;22.688;2022-12-24T05:13:57;203.10;;;113.07;;
32038;SDS011;18549;42.286;22.688;2022-12-24T05:16:23;192.10;;;104.97;;
32038;SDS011;18549;42.286;22.688;2022-12-24T05:18:51;200.37;;;107.30;;
32038;SDS011;18549;42.286;22.688;2022-12-24T05:21:18;212.70;;;107.50;;
32038;SDS011;18549;42.286;22.688;2022-12-24T05:23:47;208.60;;;106.03;;
32038;SDS011;18549;42.286;22.688;2022-12-24T05:26:34;222.47;;;108.17;;
32038;SDS011;18549;42.286;22.688;2022-12-24T05:29:05;172.90;;;90.03;;
32038;SDS011;18549;42.286;22.688;2022-12-24T05:31:33;149.57;;;77.00;;
32038;SDS011;18549;42.286;22.688;2022-12-24T05:34:01;156.97;;;75.40;;
32038;SDS011;18549;42.286;22.688;2022-12-24T05:36:29;134.93;;;72.70;;
32038;SDS011;18549;42.286;22.688;2022-12-24T05:38:56;138.03;;;71.83;;
32038;SDS011;18549;42.286;22.688;2022-12-24T05:41:24;137.47;;;75.63;;
32038;SDS011;18549;42.286;22.688;2022-12-24T05:43:52;147.37;;;78.50;;
32038;SDS011;18549;42.286;22.688;2022-12-24T05:46:20;166.20;;;79.27;;
32038;SDS011;18549;42.286;22.688;2022-12-24T05:48:48;154.10;;;77.43;;
32038;SDS011;18549;42.286;22.688;2022-12-24T05:51:15;169.57;;;80.63;;
32038;SDS011;18549;42.286;22.688;2022-12-24T05:53:44;181.13;;;86.27;;
32038;SDS011;18549;42.286;22.688;2022-12-24T05:56:13;158.53;;;79.90;;
32038;SDS011;18549;42.286;22.688;2022-12-24T05:58:42;172.63;;;80.73;;
32038;SDS011;18549;42.286;22.688;2022-12-24T06:01:11;165.67;;;75.67;;
32038;SDS011;18549;42.286;22.688;2022-12-24T06:03:39;188.93;;;78.63;;
32038;SDS011;18549;42.286;22.688;2022-12-24T06:06:07;165.30;;;77.30;;
32038;SDS011;18549;42.286;22.688;2022-12-24T06:08:36;146.87;;;75.53;;
32038;SDS011;18549;42.286;22.688;2022-12-24T06:11:04;148.00;;;68.87;;
32038;SDS011;18549;42.286;22.688;2022-12-24T06:13:32;130.87;;;65.10;;
32038;SDS011;18549;42.286;22.688;2022-12-24T06:16:01;153.53;;;81.87;;
32038;SDS011;18549;42.286;22.688;2022-12-24T06:18:31;182.60;;;55.60;;
32038;SDS011;18549;42.286;22.688;2022-12-24T06:21:00;122.47;;;55.80;;
32038;SDS011;18549;42.286;22.688;2022-12-24T06:23:28;139.80;;;71.47;;
32038;SDS011;18549;42.286;22.688;2022-12-24T06:25:57;115.53;;;59.93;;
32038;SDS011;18549;42.286;22.688;2022-12-24T06:28:25;108.70;;;58.40;;
32038;SDS011;18549;42.286;22.688;2022-12-24T06:30:53;159.17;;;64.87;;
32038;SDS011;18549;42.286;22.688;2022-12-24T06:33:20;127.00;;;61.13;;
32038;SDS011;18549;42.286;22.688;2022-12-24T06:35:48;117.87;;;66.70;;
32038;SDS011;18549;42.286;22.688;2022-12-24T06:38:15;128.37;;;68.73;;
32038;SDS011;18549;42.286;22.688;2022-12-24T06:40:43;136.93;;;68.83;;
32038;SDS011;18549;42.286;22.688;2022-12-24T06:43:11;135.37;;;65.00;;
32038;SDS011;18549;42.286;22.688;2022-12-24T06:45:39;152.83;;;75.20;;
32038;SDS011;18549;42.286;22.688;2022-12-24T06:48:09;168.27;;;79.90;;
32038;SDS011;18549;42.286;22.688;2022-12-24T06:50:36;161.27;;;76.37;;
32038;SDS011;18549;42.286;22.688;2022-12-24T06:53:05;153.83;;;73.80;;
32038;SDS011;18549;42.286;22.688;2022-12-24T06:55:32;163.07;;;81.77;;
32038;SDS011;18549;42.286;22.688;2022-12-24T06:57:59;197.13;;;96.53;;
32038;SDS011;18549;42.286;22.688;2022-12-24T07:00:26;197.20;;;89.13;;
32038;SDS011;18549;42.286;22.688;2022-12-24T07:02:53;192.90;;;97.03;;
32038;SDS011;18549;42.286;22.688;2022-12-24T07:05:20;235.30;;;102.57;;
32038;SDS011;18549;42.286;22.688;2022-12-24T07:07:47;228.80;;;110.47;;
32038;SDS011;18549;42.286;22.688;2022-12-24T07:10:16;237.67;;;118.43;;
32038;SDS011;18549;42.286;22.688;2022-12-24T07:12:43;267.80;;;122.20;;
32038;SDS011;18549;42.286;22.688;2022-12-24T07:15:11;276.27;;;126.40;;
32038;SDS011;18549;42.286;22.688;2022-12-24T07:17:39;281.87;;;135.63;;
32038;SDS011;18549;42.286;22.688;2022-12-24T07:20:06;255.33;;;136.10;;
32038;SDS011;18549;42.286;22.688;2022-12-24T07:22:36;287.53;;;145.90;;
32038;SDS011;18549;42.286;22.688;2022-12-24T07:25:04;289.30;;;142.87;;
32038;SDS011;18549;42.286;22.688;2022-12-24T07:27:33;267.33;;;140.50;;
32038;SDS011;18549;42.286;22.688;2022-12-24T07:30:00;289.87;;;149.43;;
32038;SDS011;18549;42.286;22.688;2022-12-24T07:32:27;288.73;;;141.07;;
32038;SDS011;18549;42.286;22.688;2022-12-24T07:34:54;279.50;;;138.40;;
32038;SDS011;18549;42.286;22.688;2022-12-24T07:37:20;265.33;;;132.40;;
32038;SDS011;18549;42.286;22.688;2022-12-24T07:39:48;261.93;;;139.50;;
32038;SDS011;18549;42.286;22.688;2022-12-24T07:42:15;278.40;;;137.97;;
32038;SDS011;18549;42.286;22.688;2022-12-24T07:44:44;281.63;;;135.80;;
32038;SDS011;18549;42.286;22.688;2022-12-24T07:47:11;282.57;;;148.43;;
32038;SDS011;18549;42.286;22.688;2022-12-24T07:49:40;304.30;;;156.97;;
32038;SDS011;18549;42.286;22.688;2022-12-24T07:52:12;287.10;;;154.27;;
32038;SDS011;18549;42.286;22.688;2022-12-24T07:54:39;290.93;;;148.93;;
32038;SDS011;18549;42.286;22.688;2022-12-24T07:57:06;301.00;;;154.17;;
32038;SDS011;18549;42.286;22.688;2022-12-24T07:59:34;290.67;;;147.23;;
32038;SDS011;18549;42.286;22.688;2022-12-24T08:02:03;309.23;;;160.57;;
32038;SDS011;18549;42.286;22.688;2022-12-24T08:04:30;291.23;;;156.03;;
32038;SDS011;18549;42.286;22.688;2022-12-24T08:07:00;315.17;;;159.87;;
32038;SDS011;18549;42.286;22.688;2022-12-24T08:09:29;302.13;;;162.03;;
32038;SDS011;18549;42.286;22.688;2022-12-24T08:11:57;298.00;;;160.67;;
32038;SDS011;18549;42.286;22.688;2022-12-24T08:14:24;293.73;;;158.97;;
32038;SDS011;18549;42.286;22.688;2022-12-24T08:16:52;318.53;;;166.20;;
32038;SDS011;18549;42.286;22.688;2022-12-24T08:19:21;307.60;;;162.50;;
32038;SDS011;18549;42.286;22.688;2022-12-24T08:21:49;299.37;;;168.10;;
32038;SDS011;18549;42.286;22.688;2022-12-24T08:24:16;307.80;;;164.80;;
32038;SDS011;18549;42.286;22.688;2022-12-24T08:26:44;313.00;;;167.40;;
32038;SDS011;18549;42.286;22.688;2022-12-24T08:29:11;319.67;;;178.40;;
32038;SDS011;18549;42.286;22.688;2022-12-24T08:31:39;318.90;;;173.03;;
32038;SDS011;18549;42.286;22.688;2022-12-24T08:34:07;338.23;;;180.23;;
32038;SDS011;18549;42.286;22.688;2022-12-24T08:36:37;322.33;;;178.07;;
32038;SDS011;18549;42.286;22.688;2022-12-24T08:39:04;340.70;;;184.20;;
32038;SDS011;18549;42.286;22.688;2022-12-24T08:41:33;320.43;;;182.20;;
32038;SDS011;18549;42.286;22.688;2022-12-24T08:44:01;299.10;;;171.37;;
32038;SDS011;18549;42.286;22.688;2022-12-24T08:46:29;324.57;;;175.33;;
32038;SDS011;18549;42.286;22.688;2022-12-24T08:48:56;340.40;;;187.60;;
32038;SDS011;18549;42.286;22.688;2022-12-24T08:51:24;366.10;;;199.47;;
32038;SDS011;18549;42.286;22.688;2022-12-24T08:53:53;342.43;;;191.27;;
32038;SDS011;18549;42.286;22.688;2022-12-24T08:56:20;347.63;;;193.50;;
32038;SDS011;18549;42.286;22.688;2022-12-24T08:58:48;303.10;;;166.83;;
32038;SDS011;18549;42.286;22.688;2022-12-24T09:01:16;265.47;;;146.67;;
32038;SDS011;18549;42.286;22.688;2022-12-24T09:03:44;226.13;;;122.43;;
32038;SDS011;18549;42.286;22.688;2022-12-24T09:06:12;179.07;;;102.80;;
32038;SDS011;18549;42.286;22.688;2022-12-24T09:08:41;190.33;;;103.23;;
32038;SDS011;18549;42.286;22.688;2022-12-24T09:11:11;189.63;;;107.63;;
32038;SDS011;18549;42.286;22.688;2022-12-24T09:13:41;175.57;;;100.80;;
32038;SDS011;18549;42.286;22.688;2022-12-24T09:16:09;176.93;;;105.63;;
32038;SDS011;18549;42.286;22.688;2022-12-24T09:18:37;184.77;;;108.43;;
32038;SDS011;18549;42.286;22.688;2022-12-24T09:21:05;204.90;;;122.00;;
32038;SDS011;18549;42.286;22.688;2022-12-24T09:23:35;209.23;;;123.73;;
32038;SDS011;18549;42.286;22.688;2022-12-24T09:26:05;164.43;;;101.10;;
32038;SDS011;18549;42.286;22.688;2022-12-24T09:28:35;142.33;;;88.30;;
32038;SDS011;18549;42.286;22.688;2022-12-24T09:31:03;123.27;;;75.53;;
32038;SDS011;18549;42.286;22.688;2022-12-24T09:33:32;236.23;;;117.37;;
32038;SDS011;18549;42.286;22.688;2022-12-24T09:36:01;145.77;;;89.67;;
32038;SDS011;18549;42.286;22.688;2022-12-24T09:38:29;119.93;;;72.67;;
32038;SDS011;18549;42.286;22.688;2022-12-24T09:40:58;158.27;;;89.87;;
32038;SDS011;18549;42.286;22.688;2022-12-24T09:43:28;170.93;;;103.60;;
32038;SDS011;18549;42.286;22.688;2022-12-24T09:46:03;243.83;;;128.17;;
32038;SDS011;18549;42.286;22.688;2022-12-24T09:48:36;150.90;;;94.30;;
32038;SDS011;18549;42.286;22.688;2022-12-24T09:51:07;157.97;;;94.27;;
32038;SDS011;18549;42.286;22.688;2022-12-24T09:53:38;160.30;;;97.07;;
32038;SDS011;18549;42.286;22.688;2022-12-24T09:56:10;180.37;;;107.27;;
32038;SDS011;18549;42.286;22.688;2022-12-24T09:58:42;152.77;;;93.27;;
32038;SDS011;18549;42.286;22.688;2022-12-24T10:01:14;151.53;;;92.17;;
32038;SDS011;18549;42.286;22.688;2022-12-24T10:03:43;196.47;;;114.20;;
32038;SDS011;18549;42.286;22.688;2022-12-24T10:06:12;241.43;;;137.97;;
32038;SDS011;18549;42.286;22.688;2022-12-24T10:08:45;246.17;;;152.03;;
32038;SDS011;18549;42.286;22.688;2022-12-24T10:11:22;281.97;;;164.40;;
32038;SDS011;18549;42.286;22.688;2022-12-24T10:14:02;279.60;;;158.20;;
32038;SDS011;18549;42.286;22.688;2022-12-24T10:16:40;260.13;;;157.53;;
32038;SDS011;18549;42.286;22.688;2022-12-24T10:19:16;274.83;;;164.33;;
32038;SDS011;18549;42.286;22.688;2022-12-24T10:21:52;309.23;;;189.23;;
32038;SDS011;18549;42.286;22.688;2022-12-24T10:24:25;259.40;;;154.33;;
32038;SDS011;18549;42.286;22.688;2022-12-24T10:26:58;257.07;;;157.10;;
32038;SDS011;18549;42.286;22.688;2022-12-24T10:29:31;285.20;;;172.27;;
32038;SDS011;18549;42.286;22.688;2022-12-24T10:32:08;362.77;;;204.13;;
32038;SDS011;18549;42.286;22.688;2022-12-24T10:34:42;304.03;;;191.53;;
32038;SDS011;18549;42.286;22.688;2022-12-24T10:37:20;318.77;;;185.77;;
32038;SDS011;18549;42.286;22.688;2022-12-24T10:39:49;294.00;;;187.70;;
32038;SDS011;18549;42.286;22.688;2022-12-24T10:42:17;323.53;;;195.57;;
32038;SDS011;18549;42.286;22.688;2022-12-24T10:44:49;307.60;;;187.83;;
32038;SDS011;18549;42.286;22.688;2022-12-24T10:47:21;328.47;;;190.63;;
32038;SDS011;18549;42.286;22.688;2022-12-24T10:49:52;308.20;;;181.10;;
32038;SDS011;18549;42.286;22.688;2022-12-24T10:52:24;271.57;;;161.93;;
32038;SDS011;18549;42.286;22.688;2022-12-24T10:55:03;267.90;;;160.27;;
32038;SDS011;18549;42.286;22.688;2022-12-24T10:57:45;232.47;;;135.30;;
32038;SDS011;18549;42.286;22.688;2022-12-24T11:00:22;222.40;;;127.20;;
32038;SDS011;18549;42.286;22.688;2022-12-24T11:03:04;198.27;;;120.63;;
32038;SDS011;18549;42.286;22.688;2022-12-24T11:05:35;241.97;;;131.23;;
32038;SDS011;18549;42.286;22.688;2022-12-24T11:08:04;210.67;;;118.27;;
32038;SDS011;18549;42.286;22.688;2022-12-24T11:10:39;201.80;;;114.20;;
32038;SDS011;18549;42.286;22.688;2022-12-24T11:13:17;194.73;;;109.10;;
32038;SDS011;18549;42.286;22.688;2022-12-24T11:15:50;174.40;;;93.00;;
32038;SDS011;18549;42.286;22.688;2022-12-24T11:18:30;161.40;;;93.00;;
32038;SDS011;18549;42.286;22.688;2022-12-24T11:21:00;160.33;;;94.93;;
32038;SDS011;18549;42.286;22.688;2022-12-24T11:23:29;150.50;;;85.93;;
32038;SDS011;18549;42.286;22.688;2022-12-24T11:25:56;133.60;;;75.23;;
32038;SDS011;18549;42.286;22.688;2022-12-24T11:28:25;127.43;;;76.60;;
32038;SDS011;18549;42.286;22.688;2022-12-24T11:31:01;132.17;;;76.70;;
32038;SDS011;18549;42.286;22.688;2022-12-24T11:33:32;125.00;;;69.80;;
32038;SDS011;18549;42.286;22.688;2022-12-24T11:36:12;120.80;;;72.77;;
32038;SDS011;18549;42.286;22.688;2022-12-24T11:38:40;119.50;;;70.97;;
32038;SDS011;18549;42.286;22.688;2022-12-24T11:41:08;113.83;;;68.60;;
32038;SDS011;18549;42.286;22.688;2022-12-24T11:43:38;120.10;;;70.30;;
32038;SDS011;18549;42.286;22.688;2022-12-24T11:46:15;103.50;;;61.47;;
32038;SDS011;18549;42.286;22.688;2022-12-24T11:48:49;121.63;;;68.70;;
32038;SDS011;18549;42.286;22.688;2022-12-24T11:51:32;126.57;;;77.23;;
32038;SDS011;18549;42.286;22.688;2022-12-24T11:54:01;107.97;;;64.77;;
32038;SDS011;18549;42.286;22.688;2022-12-24T11:56:39;181.73;;;105.83;;
32038;SDS011;18549;42.286;22.688;2022-12-24T11:59:12;120.40;;;72.13;;
32038;SDS011;18549;42.286;22.688;2022-12-24T12:01:47;113.00;;;69.77;;
32038;SDS011;18549;42.286;22.688;2022-12-24T12:04:20;104.20;;;64.70;;
32038;SDS011;18549;42.286;22.688;2022-12-24T12:06:51;111.50;;;67.33;;
32038;SDS011;18549;42.286;22.688;2022-12-24T12:09:23;131.83;;;80.00;;
32038;SDS011;18549;42.286;22.688;2022-12-24T12:11:55;110.20;;;68.57;;
32038;SDS011;18549;42.286;22.688;2022-12-24T12:14:28;111.97;;;67.37;;
32038;SDS011;18549;42.286;22.688;2022-12-24T12:17:00;107.60;;;69.67;;
32038;SDS011;18549;42.286;22.688;2022-12-24T12:19:37;106.67;;;62.33;;
32038;SDS011;18549;42.286;22.688;2022-12-24T12:22:10;83.37;;;55.87;;
32038;SDS011;18549;42.286;22.688;2022-12-24T12:24:49;99.13;;;59.63;;
32038;SDS011;18549;42.286;22.688;2022-12-24T12:27:22;101.37;;;62.93;;
32038;SDS011;18549;42.286;22.688;2022-12-24T12:29:54;92.83;;;63.00;;
32038;SDS011;18549;42.286;22.688;2022-12-24T12:32:26;96.10;;;63.63;;
32038;SDS011;18549;42.286;22.688;2022-12-24T12:35:04;115.13;;;68.23;;
32038;SDS011;18549;42.286;22.688;2022-12-24T12:37:39;102.97;;;68.23;;
32038;SDS011;18549;42.286;22.688;2022-12-24T12:40:11;119.23;;;73.10;;
32038;SDS011;18549;42.286;22.688;2022-12-24T12:42:40;114.67;;;71.23;;
32038;SDS011;18549;42.286;22.688;2022-12-24T12:45:21;129.00;;;77.00;;
32038;SDS011;18549;42.286;22.688;2022-12-24T12:48:03;129.40;;;77.93;;
32038;SDS011;18549;42.286;22.688;2022-12-24T12:50:46;131.27;;;81.83;;
32038;SDS011;18549;42.286;22.688;2022-12-24T12:53:23;129.97;;;82.13;;
32038;SDS011;18549;42.286;22.688;2022-12-24T12:56:05;144.37;;;80.97;;
32038;SDS011;18549;42.286;22.688;2022-12-24T12:58:40;133.60;;;85.27;;
32038;SDS011;18549;42.286;22.688;2022-12-24T13:01:12;142.63;;;83.87;;
32038;SDS011;18549;42.286;22.688;2022-12-24T13:06:53;139.33;;;85.43;;
32038;SDS011;18549;42.286;22.688;2022-12-24T13:09:45;134.93;;;89.93;;
32038;SDS011;18549;42.286;22.688;2022-12-24T13:12:28;142.50;;;87.13;;
32038;SDS011;18549;42.286;22.688;2022-12-24T13:15:10;147.10;;;89.20;;
32038;SDS011;18549;42.286;22.688;2022-12-24T13:20:57;133.80;;;85.30;;
32038;SDS011;18549;42.286;22.688;2022-12-24T13:23:31;138.40;;;85.57;;
32038;SDS011;18549;42.286;22.688;2022-12-24T13:26:08;144.80;;;91.80;;
32038;SDS011;18549;42.286;22.688;2022-12-24T13:29:01;151.77;;;92.77;;
32038;SDS011;18549;42.286;22.688;2022-12-24T13:35:26;143.67;;;88.03;;
32038;SDS011;18549;42.286;22.688;2022-12-24T13:44:01;141.20;;;84.30;;
32038;SDS011;18549;42.286;22.688;2022-12-24T13:46:45;149.40;;;90.43;;
32038;SDS011;18549;42.286;22.688;2022-12-24T13:49:17;137.73;;;85.67;;
32038;SDS011;18549;42.286;22.688;2022-12-24T13:51:47;138.30;;;84.83;;
32038;SDS011;18549;42.286;22.688;2022-12-24T13:54:17;148.57;;;91.70;;
32038;SDS011;18549;42.286;22.688;2022-12-24T13:56:49;209.67;;;113.27;;
32038;SDS011;18549;42.286;22.688;2022-12-24T13:59:22;173.73;;;104.80;;
32038;SDS011;18549;42.286;22.688;2022-12-24T14:01:55;171.53;;;101.40;;
32038;SDS011;18549;42.286;22.688;2022-12-24T14:04:23;154.23;;;98.93;;
32038;SDS011;18549;42.286;22.688;2022-12-24T14:06:54;169.77;;;102.93;;
32038;SDS011;18549;42.286;22.688;2022-12-24T14:09:26;163.00;;;102.57;;
32038;SDS011;18549;42.286;22.688;2022-12-24T14:12:15;165.77;;;105.70;;
32038;SDS011;18549;42.286;22.688;2022-12-24T14:14:57;170.13;;;103.13;;
32038;SDS011;18549;42.286;22.688;2022-12-24T14:17:45;184.20;;;111.43;;
32038;SDS011;18549;42.286;22.688;2022-12-24T14:20:14;192.13;;;116.60;;
32038;SDS011;18549;42.286;22.688;2022-12-24T14:22:43;213.60;;;124.23;;
32038;SDS011;18549;42.286;22.688;2022-12-24T14:25:14;212.97;;;124.23;;
32038;SDS011;18549;42.286;22.688;2022-12-24T14:27:44;190.67;;;118.10;;
32038;SDS011;18549;42.286;22.688;2022-12-24T14:30:15;206.97;;;129.10;;
32038;SDS011;18549;42.286;22.688;2022-12-24T14:32:46;208.73;;;127.10;;